Bauang Weathercam more information Bauang Weathercam


Thunder radar more information blitzortung!


Rain radar more information rain snow radar


Visit other webcamsites:

YoutubeYoutube live stream

EarthCamLivecam



Nearby METAR Reports

   
RPLC - Angeles/Pampanga, Philippines
Distance from station: S 165 km
Updated: 26-09-2020 13:00
Haze, Mostly Cloudy  
Haze, Mostly Cloudy  
   Wind: South 5.1 m/s
Wind: South 5.1 m/s
Temperature: 32°C
Heat Index: 39°C
Dew Point: 25°C
Humidity: 67%
Barometer: 1008 hPa
Clouds: Mostly Cloudy
Visibility: 5 km
Cloud details: Partly Cloudy 609.6 m,
Mostly Cloudy 9144 m
RPLC 260500Z 18010KT 5000 HZ SCT020 BKN300 32/25 Q1008 RMK A2977
RPLI - Laoag Intl(Ph-Ar, Philippines
Distance from station: N 172 km
Updated: 26-09-2020 13:00
Mostly Cloudy  
Mostly Cloudy  
   Wind: NW 4.1 m/s
Wind: NW 4.1 m/s
Temperature: 31°C
Heat Index: 39°C
Dew Point: 26°C
Humidity: 75%
Barometer: 1007 hPa
Clouds: Mostly Cloudy
Visibility: More than 10 km
Cloud details: Few Clouds 548.6 m,
Mostly Cloudy 8534.4 m
RPLI 260500Z 32008KT 9999 FEW018 BKN280 31/26 Q1007 NOSIG RMK A2974
RPLB - Olongapo/Subic, Philippines
Distance from station: S 203 km
Updated: 26-09-2020 14:00
Mostly Cloudy  
Mostly Cloudy  
   Wind: ENE 2.6 m/s
Wind: ENE 2.6 m/s
Temperature: 27°C
Heat Index: 31°C
Dew Point: 25°C
Humidity: 89%
Barometer: 1008 hPa
Clouds: Mostly Cloudy
Visibility: More than 10 km
Cloud details: Few Clouds 609.6 m,
Mostly Cloudy 2438.4 m
RPLB 260600Z 06005KT 9999 FEW020 BKN080 27/25 Q1008 RETS RMK A2977
RPLL - Ninoy Aquino Int, Philippines
Distance from station: SSE 246 km
Updated: 26-09-2020 14:00
Partly Cloudy  
Partly Cloudy  
   Wind: WSW 3.1 m/s
Wind: WSW 3.1 m/s
Temperature: 31°C
Heat Index: 39°C
Dew Point: 26°C
Humidity: 75%
Barometer: 1006 hPa
Clouds: Partly Cloudy
Visibility: More than 10 km
Cloud details: Few Clouds 701 m,
Partly Cloudy 762 m
RPLL 260600Z 24006KT 200V280 9999 FEW023CB SCT025 31/26 Q1006 NOSIG RMK A2971 CB NE S-SW
RPMR - Romblon/Tablas I, Philippines
Distance from station: SSE 498 km
Updated: 26-09-2020 13:00
Overcast  
Overcast  
   Wind: SSE 1 m/s
Wind: SSE 1 m/s
Temperature: 29°C
Heat Index: 33°C
Dew Point: 23°C
Humidity: 70%
Barometer: 1011 hPa
Clouds: Overcast
Visibility: More than 10 km
Cloud details: Few Clouds 548.6 m,
Overcast 2438.4 m
RPMR 260500Z 16002KT 9999 FEW018 OVC080 29/23 Q1011 RMK A2985
RPVP - Puerto Princesa, Philippines
Distance from station: SSW 778 km
Updated: 26-09-2020 13:00
  
  
   Wind: South 4.1 m/s
Wind: South 4.1 m/s
Temperature: 32°C
Heat Index: 39°C
Dew Point: 25°C
Humidity: 67%
Barometer: 1008 hPa
Visibility: More than 10 km
Cloud details: 579.1 m
RPVP 260500Z 18008KT 9999 FE019TCU 32/25 Q1008 RMK A2777 TCU NW
RPVM - Mactan-Cebu, Philippines
Distance from station: SSE 800 km
Updated: 26-09-2020 14:00
Mostly Cloudy  
Mostly Cloudy  
   Wind: SSE 3.1 m/s
Wind: SSE 3.1 m/s
Temperature: 31°C
Heat Index: 38°C
Dew Point: 25°C
Humidity: 70%
Barometer: 1008 hPa
Clouds: Mostly Cloudy
Visibility: More than 10 km
Cloud details: Few Clouds 548.6 m,
Mostly Cloudy 7620 m
RPVM 260600Z 16006KT 130V200 9999 FEW018CB BKN250 31/25 Q1008 RMK A2977 CB NW E S
RPMZ - Zamboanga (civ/A, Philippines
Distance from station: S 1090 km
Updated: 26-09-2020 14:00
Partly Cloudy  
Partly Cloudy  
   Wind: West 4.1 m/s
Wind: West 4.1 m/s
Temperature: 30°C
Heat Index: 34°C
Dew Point: 23°C
Humidity: 66%
Barometer: 1009 hPa
Clouds: Partly Cloudy
Visibility: More than 10 km
Cloud details: Few Clouds 487.7 m,
Few Clouds 518.2 m,
Partly Cloudy 9144 m
RPMZ 260600Z 28008KT 170V230 9999 FEW016CB FEW017 SCT300 30/23 Q1009 RMK A2780 CB N QD DSNT PCPN
RPMD - Davao/Francisco, Philippines
Distance from station: SSE 1198 km
Updated: 26-09-2020 14:00
Light Rain, Overcast  
Light Rain, Overcast  
   Wind: South 5.7 m/s
Wind: South 5.7 m/s
Temperature: 27°C
Heat Index: 30°C
Dew Point: 24°C
Humidity: 84%
Barometer: 1009 hPa
Clouds: Overcast
Visibility: More than 10 km
Cloud details: Few Clouds 487.7 m,
Overcast 2438.4 m
RPMD 260600Z 18011KT 9999 -RA FEW016 OVC080 27/24 Q1009 RMK A2980

Script developed by  Saratoga-weather.org Adapted for the template by  Weerstation Leuven

You find our weather info also at:

Ambient Weather

WeatherCloud

Philippine Atmospheric, Geophysical and Astronomical Services Administration